Flight Track Log - Related Links

Times and Time Zones

All times are in EDT time to prevent confusion due to time zone crossing. See the ASQ5407 flight status page for this flight to view local times or setup timezone preferences in your user account.

Time Position Orientation Groundspeed Altitude Reporting Facility
EDT Latitude Longitude Course Direction KTS MPH feet Rate Location/Type
Fri 11:12:27 PM 33.6333 -84.3667 90° East 180 207 2,700  Level Atlanta TRACON
Fri 11:13:39 PM 33.6333 -84.2833 90° East 231 266 5,900 2,632 Climbing Atlanta TRACON
Fri 11:14:21 PM 33.6333 -84.2333 90° East 245 282 7,700 2,031 Climbing Atlanta TRACON
Fri 11:15:49 PM 33.6147 -84.0986 99° East 275 316 10,300 1,419 Climbing Atlanta Center
Fri 11:16:49 PM 33.6000 -83.9914 99° East 311 358 11,200 1,100 Climbing Atlanta Center
Fri 11:17:49 PM 33.5833 -83.8867 101° East 336 387 12,500 1,650 Climbing Atlanta Center
Fri 11:18:49 PM 33.5664 -83.7694 100° East 354 407 14,500 1,750 Climbing Atlanta Center
Fri 11:19:49 PM 33.5536 -83.6500 97° East 354 407 16,000 1,200 Climbing Atlanta Center
Fri 11:20:49 PM 33.5406 -83.5278 97° East 367 422 16,900 450 Climbing Atlanta Center
Fri 11:21:49 PM 33.5275 -83.3933 97° East 393 452 16,900  Level Atlanta Center
Fri 11:22:49 PM 33.5142 -83.2489 96° East 423 487 16,900 50 Level Atlanta Center
Fri 11:23:49 PM 33.4964 -83.1072 99° East 428 493 17,000 50 Climbing Atlanta Center
Fri 11:24:49 PM 33.4825 -82.9528 96° East 423 487 17,000  Level Atlanta Center
Fri 11:25:49 PM 33.4667 -82.8136 98° East 423 487 17,000  Level Atlanta Center
Fri 11:26:49 PM 33.3967 -82.7028 127° Southeast 414 476 17,000 -500 Level Atlanta Center
Fri 11:27:49 PM 33.3186 -82.6194 138° Southeast 414 476 16,000 -1,450 Descending Atlanta Center
Fri 11:28:49 PM 33.2422 -82.5361 138° Southeast 400 460 14,100 -1,950 Descending Atlanta Center
Fri 11:29:49 PM 33.1744 -82.4581 136° Southeast 368 423 12,100 -2,000 Descending Atlanta Center
Fri 11:31:49 PM 33.1681 -82.2794 92° East 270 311 8,100 -1,900 Descending Atlanta Center
Fri 11:32:49 PM 33.1792 -82.1947 81° East 259 298 6,400 -1,700 Descending Atlanta Center
Fri 11:33:49 PM 33.1906 -82.1200 80° East 247 284 4,700 -1,200 Descending Atlanta Center
Fri 11:34:49 PM 33.2086 -82.0675 68° East 221 254 4,000 -800 Descending Atlanta Center
Fri 11:35:49 PM 33.2756 -82.0708 358° North 170 196 3,100 -1,100 Descending Atlanta Center
Fri 11:36:49 PM 33.2892 -82.0208 72° East 141 162 1,800 -950 Descending Atlanta Center
Fri 11:37:49 PM 33.3031 -81.9758 70° East 141 162 1,200 -600 Descending Atlanta Center

Login

Don't have an account? Register now (free) for customized features, flight alerts, and more!